< < Back
Terminal Aerodrome Forecast


Current Version              Previous Versions:   1  2  3  4  5  6  7  8  9  

Terminal Aerodrome Forecast

818
FTUS44 KMRX 031055 AAB
TAFTYS
TAF AMD
KTYS 031055Z 0311/0406 VRB04KT P6SM SCT009 OVC015
     FM031600 29008KT P6SM SCT015 OVC025
     FM031800 30010KT P6SM OVC035
     FM032300 28007KT P6SM OVC040=

Latest METAR

645
SAUS80 KWBC 031200 RRB
MTRTYS
METAR KTYS 031153Z 22006KT 4SM BR SCT001 OVC013 16/15 A2989 RMK AO2
RAB17E46 SLP115 P0000 60000 70027 T01610150 10167 20161
53006


USA.gov is the U.S. government's official web portal to all federal, state and local government web resources and services.